createdAt,value
2022-09-12T00:03:28.126Z,66.09
2022-09-12T00:08:30.932Z,66.19
2022-09-12T00:13:37.273Z,66.22
2022-09-12T00:18:42.833Z,66.10
2022-09-12T00:23:46.466Z,65.92
2022-09-12T00:28:50.916Z,65.88
2022-09-12T00:33:56.820Z,65.97
2022-09-12T00:39:00.088Z,65.81
2022-09-12T00:44:23.531Z,65.94
2022-09-12T00:49:31.806Z,65.73
2022-09-12T00:54:42.870Z,65.77
2022-09-12T00:59:54.127Z,65.59
2022-09-12T01:04:57.162Z,65.71
2022-09-12T01:10:00.010Z,65.92
2022-09-12T01:15:03.471Z,65.95
2022-09-12T01:20:30.781Z,65.94
2022-09-12T01:25:54.837Z,66.06
2022-09-12T01:31:25.455Z,65.97
2022-09-12T01:36:39.397Z,65.69
2022-09-12T01:41:54.687Z,65.91
2022-09-12T01:47:11.409Z,65.78
2022-09-12T01:52:22.832Z,65.83
2022-09-12T01:57:39.676Z,65.81
2022-09-12T02:03:03.496Z,65.67
2022-09-12T02:08:17.203Z,65.57
2022-09-12T02:13:29.795Z,65.74
2022-09-12T02:18:37.017Z,65.77
2022-09-12T02:23:45.252Z,65.58
2022-09-12T02:28:48.830Z,65.72
2022-09-12T02:34:03.775Z,65.45
2022-09-12T02:39:07.056Z,65.27
2022-09-12T02:44:10.011Z,65.37
2022-09-12T02:49:13.206Z,65.14
2022-09-12T02:54:17.921Z,65.43
2022-09-12T02:59:23.207Z,65.55
2022-09-12T03:05:05.979Z,65.32
2022-09-12T03:10:15.164Z,65.32
2022-09-12T03:15:17.916Z,65.40
2022-09-12T03:20:36.946Z,65.48
2022-09-12T03:26:07.433Z,65.60
2022-09-12T03:31:16.046Z,65.81
2022-09-12T03:36:24.225Z,65.96
2022-09-12T03:41:27.019Z,65.92
2022-09-12T03:46:30.032Z,65.68
2022-09-12T03:51:32.920Z,65.80
2022-09-12T03:56:36.175Z,65.87
2022-09-12T04:01:39.090Z,65.92
2022-09-12T04:06:43.108Z,65.92
2022-09-12T04:11:46.057Z,65.96
2022-09-12T04:16:49.166Z,66.05
2022-09-12T04:21:52.552Z,65.82
2022-09-12T04:26:55.759Z,65.92
2022-09-12T04:31:59.180Z,66.15
2022-09-12T04:37:02.235Z,65.94
2022-09-12T04:42:05.644Z,66.15
2022-09-12T04:47:08.783Z,66.07
2022-09-12T04:52:11.615Z,66.14
2022-09-12T04:57:14.467Z,65.97
2022-09-12T05:02:18.198Z,66.05
2022-09-12T05:07:21.130Z,66.07
2022-09-12T05:12:24.893Z,66.26
2022-09-12T05:17:30.259Z,66.31
2022-09-12T05:22:33.062Z,66.15
2022-09-12T05:27:35.901Z,66.32
2022-09-12T05:32:38.840Z,66.26
2022-09-12T05:37:43.249Z,66.42
2022-09-12T05:42:46.063Z,66.21
2022-09-12T05:47:49.031Z,65.91
2022-09-12T05:52:51.874Z,65.69
2022-09-12T05:57:54.720Z,65.51
2022-09-12T06:02:58.009Z,65.30
2022-09-12T06:08:00.891Z,65.50
2022-09-12T06:13:04.396Z,65.15
2022-09-12T06:18:07.386Z,65.25
2022-09-12T06:23:10.520Z,64.95
2022-09-12T06:28:13.301Z,65.00
2022-09-12T06:33:17.033Z,64.69
2022-09-12T06:38:19.868Z,64.52
2022-09-12T06:43:22.896Z,64.48
2022-09-12T06:48:26.175Z,64.68
2022-09-12T06:53:30.762Z,64.56
2022-09-12T06:58:35.110Z,64.37
2022-09-12T07:03:38.957Z,64.23
2022-09-12T07:08:42.591Z,64.15
2022-09-12T07:13:47.432Z,63.75
2022-09-12T07:18:52.861Z,63.49
2022-09-12T07:23:58.001Z,63.45
2022-09-12T07:29:25.131Z,63.57
2022-09-12T07:34:24.665Z,63.37
2022-09-12T07:39:27.662Z,62.94
2022-09-12T07:44:30.632Z,62.68
2022-09-12T07:49:33.524Z,62.51
2022-09-12T07:54:37.495Z,62.54
2022-09-12T07:59:52.546Z,61.97
2022-09-12T08:04:56.851Z,61.32
2022-09-12T08:10:00.563Z,61.00
2022-09-12T08:15:04.195Z,60.45
2022-09-12T08:20:09.384Z,60.27
2022-09-12T08:25:12.277Z,59.99
2022-09-12T08:30:15.218Z,59.81
2022-09-12T08:35:18.550Z,59.33
2022-09-12T08:40:21.795Z,59.52
2022-09-12T08:45:38.917Z,59.71
2022-09-12T08:50:49.229Z,58.99
2022-09-12T08:55:53.970Z,58.99
2022-09-12T09:01:01.386Z,58.76
2022-09-12T09:06:33.468Z,58.74
2022-09-12T09:12:04.863Z,58.30
2022-09-12T09:17:21.565Z,57.73
2022-09-12T09:22:39.904Z,57.75
2022-09-12T09:27:49.353Z,57.07
2022-09-12T09:32:57.601Z,56.98
2022-09-12T09:38:08.865Z,56.53
2022-09-12T09:43:23.778Z,55.84
2022-09-12T09:48:35.964Z,56.06
2022-09-12T09:54:00.472Z,55.28
2022-09-12T09:59:09.282Z,55.42
2022-09-12T10:04:26.096Z,55.22
2022-09-12T10:09:37.453Z,54.86
2022-09-12T10:14:41.946Z,54.59
2022-09-12T10:19:49.860Z,54.27
2022-09-12T10:25:11.802Z,53.66
2022-09-12T10:30:14.764Z,53.65
2022-09-12T10:35:21.291Z,53.31
2022-09-12T10:40:32.716Z,53.40
2022-09-12T10:45:37.879Z,52.88
2022-09-12T10:50:43.668Z,52.22
2022-09-12T10:55:57.408Z,52.03
2022-09-12T11:01:28.582Z,52.02
2022-09-12T11:06:48.388Z,51.91
2022-09-12T11:11:53.892Z,51.33
2022-09-12T11:17:22.294Z,51.01
2022-09-12T11:22:48.548Z,50.55
2022-09-12T11:28:28.289Z,50.86
2022-09-12T11:33:43.150Z,50.35
2022-09-12T11:39:03.842Z,50.39
2022-09-12T11:44:15.848Z,49.98
2022-09-12T11:49:33.539Z,49.34
2022-09-12T11:54:53.934Z,49.05
2022-09-12T12:00:11.059Z,48.79
2022-09-12T12:05:37.579Z,48.36
2022-09-12T12:10:43.280Z,47.72
2022-09-12T12:15:51.133Z,47.45
2022-09-12T12:20:56.218Z,46.85
2022-09-12T12:26:01.106Z,46.72
2022-09-12T12:31:05.892Z,46.51
2022-09-12T12:36:10.973Z,45.74
2022-09-12T12:41:16.877Z,45.32
2022-09-12T12:46:24.891Z,45.58
2022-09-12T12:51:31.058Z,45.47
2022-09-12T12:56:41.307Z,44.88
2022-09-12T13:01:51.483Z,44.80
2022-09-12T13:07:07.711Z,44.41
2022-09-12T13:12:18.719Z,43.44
2022-09-12T13:17:47.899Z,43.34
2022-09-12T13:22:52.797Z,43.39
2022-09-12T13:28:07.951Z,43.77
2022-09-12T13:33:18.650Z,43.43
2022-09-12T13:38:57.801Z,42.55
2022-09-12T13:44:02.529Z,41.86
2022-09-12T13:49:38.880Z,42.10
2022-09-12T13:54:45.845Z,41.86
2022-09-12T13:59:49.697Z,42.03
2022-09-12T14:05:23.459Z,41.81
2022-09-12T14:10:32.006Z,41.67
2022-09-12T14:15:37.771Z,41.51
2022-09-12T14:20:42.049Z,41.65
2022-09-12T14:25:48.105Z,41.83
2022-09-12T14:31:03.781Z,41.98
2022-09-12T14:36:19.855Z,42.16
2022-09-12T14:41:29.610Z,42.21
2022-09-12T14:46:37.054Z,42.54
2022-09-12T14:51:50.744Z,42.65
2022-09-12T14:57:00.983Z,42.81
2022-09-12T15:02:22.141Z,43.03
2022-09-12T15:07:42.548Z,43.39
2022-09-12T15:12:45.355Z,43.65
2022-09-12T15:17:48.366Z,43.79
2022-09-12T15:22:51.819Z,43.68
2022-09-12T15:27:56.153Z,43.79
2022-09-12T15:33:00.220Z,44.08
2022-09-12T15:38:03.306Z,44.33
2022-09-12T15:43:06.498Z,44.31
2022-09-12T15:48:09.836Z,44.40
2022-09-12T15:53:17.319Z,44.35
2022-09-12T15:58:20.790Z,44.64
2022-09-12T16:03:28.838Z,44.78
2022-09-12T16:08:33.085Z,45.01
2022-09-12T16:13:37.369Z,45.16
2022-09-12T16:18:40.972Z,45.36
2022-09-12T16:23:44.842Z,45.54
2022-09-12T16:28:47.898Z,45.70
2022-09-12T16:33:50.893Z,45.83
2022-09-12T16:38:54.704Z,45.89
2022-09-12T16:43:58.247Z,46.16
2022-09-12T16:49:01.537Z,46.38
2022-09-12T16:54:04.899Z,46.54
2022-09-12T16:59:12.255Z,46.68
2022-09-12T17:04:15.175Z,46.96
2022-09-12T17:09:18.785Z,47.17
2022-09-12T17:14:21.692Z,47.34
2022-09-12T17:19:29.766Z,47.78
2022-09-12T17:24:33.241Z,47.94
2022-09-12T17:29:37.705Z,48.31
2022-09-12T17:34:40.677Z,48.74
2022-09-12T17:39:44.164Z,48.91
2022-09-12T17:44:47.742Z,49.23
2022-09-12T17:50:05.157Z,49.26
2022-09-12T17:55:17.271Z,49.36
2022-09-12T18:00:40.851Z,49.74
2022-09-12T18:05:48.459Z,49.93
2022-09-12T18:10:52.356Z,50.02
2022-09-12T18:15:55.697Z,50.06
2022-09-12T18:20:59.090Z,50.24
2022-09-12T18:26:05.187Z,50.86
2022-09-12T18:31:15.502Z,50.64
2022-09-12T18:36:19.939Z,51.11
2022-09-12T18:41:24.904Z,51.44
2022-09-12T18:46:29.972Z,51.23
2022-09-12T18:51:36.030Z,51.24
2022-09-12T18:56:41.007Z,51.54
2022-09-12T19:01:45.016Z,51.29
2022-09-12T19:06:50.457Z,51.65
2022-09-12T19:11:54.191Z,51.62
2022-09-12T19:16:57.279Z,51.67
2022-09-12T19:22:00.463Z,51.53
2022-09-12T19:27:04.101Z,51.88
2022-09-12T19:32:07.722Z,51.95
2022-09-12T19:37:10.744Z,51.97
2022-09-12T19:42:13.627Z,52.03
2022-09-12T19:47:16.640Z,52.07
2022-09-12T19:52:19.696Z,52.52
2022-09-12T19:57:22.776Z,52.57
2022-09-12T20:02:28.042Z,52.59
2022-09-12T20:07:31.075Z,52.43
2022-09-12T20:12:34.226Z,52.80
2022-09-12T20:17:37.116Z,52.72
2022-09-12T20:22:40.350Z,53.07
2022-09-12T20:27:43.724Z,53.10
2022-09-12T20:32:46.888Z,53.32
2022-09-12T20:37:49.850Z,53.47
2022-09-12T20:42:53.007Z,53.55
2022-09-12T20:47:55.895Z,54.03
2022-09-12T20:52:59.131Z,53.91
2022-09-12T20:58:02.327Z,54.16
2022-09-12T21:03:05.304Z,54.27
2022-09-12T21:08:08.314Z,54.40
2022-09-12T21:13:13.342Z,54.54
2022-09-12T21:18:16.176Z,54.80
2022-09-12T21:23:19.082Z,55.14
2022-09-12T21:28:22.315Z,55.55
2022-09-12T21:33:25.145Z,55.50
2022-09-12T21:38:28.074Z,55.61
2022-09-12T21:43:31.085Z,55.90
2022-09-12T21:48:34.436Z,56.01
2022-09-12T21:53:37.565Z,56.24
2022-09-12T21:58:40.607Z,56.33
2022-09-12T22:03:44.954Z,56.50
2022-09-12T22:08:47.844Z,56.77
2022-09-12T22:13:50.740Z,56.77
2022-09-12T22:18:54.049Z,57.18
2022-09-12T22:24:26.224Z,57.20
2022-09-12T22:29:29.172Z,57.33
2022-09-12T22:34:32.009Z,57.82
2022-09-12T22:39:34.968Z,57.96
2022-09-12T22:44:37.822Z,57.88
2022-09-12T22:49:42.844Z,58.05
2022-09-12T22:54:46.144Z,58.04
2022-09-12T22:59:49.237Z,58.33
2022-09-12T23:04:52.554Z,58.37
2022-09-12T23:09:55.372Z,58.75
2022-09-12T23:14:58.265Z,58.96
2022-09-12T23:20:01.538Z,59.06
2022-09-12T23:25:04.835Z,59.28
2022-09-12T23:30:09.492Z,59.22
2022-09-12T23:35:16.162Z,59.35
2022-09-12T23:40:19.071Z,59.40
2022-09-12T23:45:21.997Z,59.62
2022-09-12T23:50:24.847Z,59.93
2022-09-12T23:55:27.695Z,60.06
